NOZ11G EGKK-ENGM
Flight info
| Callsign | NOZ11G |
|---|---|
| Flight time | 1h 36m |
| Altitude | 35000 |
| Route | FRANE M604 GIVPO DCT LARGA DCT TINAC DCT KARLI DCT RIVEX DCT OSKOM DCT RIPAM |
| Aircraft | B738/M-SDE2E3FGHIRWXY/LB1 |
Departure
| Time | 2026-05-04 19:05 |
|---|---|
| Airport | London Gatwick Airport (EGKK) |
Arrival
| Time | 2026-05-04 20:41 |
|---|---|
| Airport | Oslo-Gardermoen International Airport (ENGM) |
| Time | Latitude | Longitude | Altitude | Speed | Heading |
|---|---|---|---|---|---|
| 2026-05-04 18:22 | 51.15495 | -0.16903 | 203 ft | 0 kts | 348° |
| 2026-05-04 18:47 | 51.15475 | -0.16896 | 216 ft | 4 kts | 348° |
| 2026-05-04 18:47 | 51.15454 | -0.16889 | 212 ft | 4 kts | 333° |
| 2026-05-04 18:48 | 51.15443 | -0.16864 | 213 ft | 4 kts | 260° |
| 2026-05-04 18:48 | 51.15448 | -0.16827 | 214 ft | 2 kts | 257° |
| 2026-05-04 18:48 | 51.15449 | -0.16824 | 203 ft | 1 kts | 257° |
| 2026-05-04 18:52 | 51.15445 | -0.16854 | 205 ft | 6 kts | 257° |
| 2026-05-04 18:52 | 51.15432 | -0.16947 | 203 ft | 10 kts | 257° |
| 2026-05-04 18:52 | 51.15414 | -0.17070 | 210 ft | 12 kts | 257° |
| 2026-05-04 18:53 | 51.15396 | -0.17152 | 209 ft | 0 kts | 246° |
| 2026-05-04 18:54 | 51.15394 | -0.17159 | 210 ft | 4 kts | 246° |
| 2026-05-04 18:54 | 51.15371 | -0.17242 | 203 ft | 12 kts | 246° |
| 2026-05-04 18:54 | 51.15323 | -0.17365 | 205 ft | 13 kts | 229° |
| 2026-05-04 18:54 | 51.15288 | -0.17496 | 215 ft | 13 kts | 258° |
| 2026-05-04 18:55 | 51.15274 | -0.17634 | 203 ft | 13 kts | 259° |
| 2026-05-04 18:55 | 51.15218 | -0.18041 | 203 ft | 21 kts | 257° |
| 2026-05-04 18:55 | 51.15189 | -0.18265 | 208 ft | 20 kts | 262° |
| 2026-05-04 18:56 | 51.15164 | -0.18483 | 205 ft | 20 kts | 257° |
| 2026-05-04 18:56 | 51.15136 | -0.18693 | 202 ft | 19 kts | 257° |
| 2026-05-04 18:56 | 51.15108 | -0.18897 | 206 ft | 18 kts | 258° |
| 2026-05-04 18:56 | 51.15081 | -0.19093 | 208 ft | 18 kts | 258° |
| 2026-05-04 18:57 | 51.15055 | -0.19283 | 212 ft | 17 kts | 257° |
| 2026-05-04 18:57 | 51.15029 | -0.19466 | 213 ft | 17 kts | 258° |
| 2026-05-04 18:57 | 51.15005 | -0.19642 | 203 ft | 16 kts | 257° |
| 2026-05-04 18:57 | 51.14981 | -0.19811 | 212 ft | 15 kts | 258° |
| 2026-05-04 18:58 | 51.14958 | -0.19984 | 203 ft | 18 kts | 258° |
| 2026-05-04 18:58 | 51.14931 | -0.20181 | 214 ft | 18 kts | 257° |
| 2026-05-04 18:58 | 51.14903 | -0.20373 | 202 ft | 17 kts | 257° |
| 2026-05-04 18:58 | 51.14877 | -0.20558 | 211 ft | 17 kts | 257° |
| 2026-05-04 18:59 | 51.14853 | -0.20738 | 206 ft | 16 kts | 258° |
| 2026-05-04 18:59 | 51.14830 | -0.20910 | 205 ft | 16 kts | 257° |
| 2026-05-04 18:59 | 51.14808 | -0.21075 | 211 ft | 15 kts | 258° |
| 2026-05-04 18:59 | 51.14779 | -0.21215 | 207 ft | 11 kts | 256° |
| 2026-05-04 19:00 | 51.14760 | -0.21340 | 207 ft | 12 kts | 254° |
| 2026-05-04 19:00 | 51.14693 | -0.21388 | 207 ft | 12 kts | 160° |
| 2026-05-04 19:00 | 51.14667 | -0.21363 | 203 ft | 1 kts | 145° |
| 2026-05-04 19:00 | 51.14665 | -0.21361 | 203 ft | 0 kts | 146° |
| 2026-05-04 19:01 | 51.14659 | -0.21354 | 203 ft | 3 kts | 145° |
| 2026-05-04 19:01 | 51.14632 | -0.21333 | 209 ft | 5 kts | 163° |
| 2026-05-04 19:01 | 51.14608 | -0.21322 | 203 ft | 3 kts | 165° |
| 2026-05-04 19:01 | 51.14571 | -0.21303 | 206 ft | 2 kts | 156° |
| 2026-05-04 19:02 | 51.14554 | -0.21287 | 202 ft | 3 kts | 143° |
| 2026-05-04 19:02 | 51.14525 | -0.21234 | 212 ft | 11 kts | 119° |
| 2026-05-04 19:02 | 51.14523 | -0.21145 | 202 ft | 0 kts | 78° |
| 2026-05-04 19:04 | 51.14528 | -0.21108 | 211 ft | 18 kts | 77° |
| 2026-05-04 19:04 | 51.14604 | -0.20553 | 207 ft | 84 kts | 77° |
| 2026-05-04 19:04 | 51.14773 | -0.19325 | 209 ft | 140 kts | 78° |
| 2026-05-04 19:04 | 51.15004 | -0.17620 | 467 ft | 163 kts | 77° |
| 2026-05-04 19:05 | 51.15245 | -0.15791 | 1056 ft | 171 kts | 77° |
| 2026-05-04 19:05 | 51.15520 | -0.13878 | 1502 ft | 191 kts | 76° |
| 2026-05-04 19:05 | 51.15825 | -0.11683 | 1771 ft | 214 kts | 76° |
| 2026-05-04 19:05 | 51.16155 | -0.09293 | 2175 ft | 226 kts | 76° |
| 2026-05-04 19:06 | 51.16515 | -0.06711 | 2532 ft | 247 kts | 76° |
| 2026-05-04 19:06 | 51.16874 | -0.04004 | 3239 ft | 252 kts | 81° |
| 2026-05-04 19:06 | 51.16920 | -0.01191 | 3993 ft | 257 kts | 91° |
| 2026-05-04 19:06 | 51.16849 | 0.01674 | 4695 ft | 260 kts | 87° |
| 2026-05-04 19:07 | 51.17254 | 0.04473 | 4977 ft | 263 kts | 61° |
| 2026-05-04 19:07 | 51.18410 | 0.06658 | 5073 ft | 260 kts | 39° |
| 2026-05-04 19:07 | 51.19856 | 0.08436 | 5551 ft | 266 kts | 37° |
| 2026-05-04 19:07 | 51.21358 | 0.10208 | 6275 ft | 271 kts | 36° |
| 2026-05-04 19:08 | 51.22880 | 0.12000 | 6988 ft | 274 kts | 36° |
| 2026-05-04 19:08 | 51.24436 | 0.13826 | 7661 ft | 281 kts | 37° |
| 2026-05-04 19:08 | 51.26008 | 0.15668 | 8470 ft | 281 kts | 36° |
| 2026-05-04 19:08 | 51.27609 | 0.17523 | 9105 ft | 287 kts | 36° |
| 2026-05-04 19:09 | 51.29240 | 0.19411 | 9776 ft | 291 kts | 36° |
| 2026-05-04 19:09 | 51.30895 | 0.21324 | 10346 ft | 298 kts | 36° |
| 2026-05-04 19:09 | 51.32617 | 0.23310 | 10619 ft | 315 kts | 36° |
| 2026-05-04 19:09 | 51.34452 | 0.25433 | 10790 ft | 336 kts | 36° |
| 2026-05-04 19:10 | 51.36390 | 0.27686 | 11008 ft | 354 kts | 36° |
| 2026-05-04 19:10 | 51.38425 | 0.30061 | 11301 ft | 368 kts | 36° |
| 2026-05-04 19:10 | 51.40506 | 0.32493 | 11882 ft | 371 kts | 36° |
| 2026-05-04 19:10 | 51.42596 | 0.34933 | 12616 ft | 372 kts | 36° |
| 2026-05-04 19:11 | 51.44691 | 0.37374 | 13302 ft | 374 kts | 36° |
| 2026-05-04 19:11 | 51.46808 | 0.39837 | 13955 ft | 378 kts | 36° |
| 2026-05-04 19:11 | 51.48953 | 0.42296 | 14549 ft | 381 kts | 34° |
| 2026-05-04 19:11 | 51.51183 | 0.44653 | 15118 ft | 386 kts | 33° |
| 2026-05-04 19:12 | 51.53447 | 0.47012 | 15693 ft | 390 kts | 33° |
| 2026-05-04 19:12 | 51.58013 | 0.51930 | 16812 ft | 400 kts | 34° |
| 2026-05-04 19:12 | 51.60291 | 0.54461 | 17286 ft | 406 kts | 35° |
| 2026-05-04 19:13 | 51.62619 | 0.57081 | 17851 ft | 411 kts | 35° |
| 2026-05-04 19:13 | 51.64967 | 0.59741 | 18420 ft | 414 kts | 35° |
| 2026-05-04 19:13 | 51.67328 | 0.62426 | 18941 ft | 417 kts | 36° |
| 2026-05-04 19:13 | 51.69710 | 0.65138 | 19436 ft | 420 kts | 36° |
| 2026-05-04 19:14 | 51.72104 | 0.67865 | 19951 ft | 423 kts | 36° |
| 2026-05-04 19:14 | 51.74517 | 0.70614 | 20424 ft | 426 kts | 36° |
| 2026-05-04 19:14 | 51.76947 | 0.73388 | 20908 ft | 430 kts | 36° |
| 2026-05-04 19:14 | 51.79395 | 0.76184 | 21382 ft | 433 kts | 36° |
| 2026-05-04 19:15 | 51.81858 | 0.79012 | 21837 ft | 436 kts | 36° |
| 2026-05-04 19:15 | 51.84219 | 0.82142 | 22193 ft | 442 kts | 42° |
| 2026-05-04 19:15 | 51.86509 | 0.85485 | 22633 ft | 445 kts | 42° |
| 2026-05-04 19:15 | 51.88810 | 0.88855 | 23102 ft | 447 kts | 42° |
| 2026-05-04 19:16 | 51.91123 | 0.92259 | 23549 ft | 450 kts | 43° |
| 2026-05-04 19:16 | 51.93450 | 0.95679 | 23913 ft | 453 kts | 42° |
| 2026-05-04 19:16 | 51.95794 | 0.99121 | 24271 ft | 455 kts | 42° |
| 2026-05-04 19:16 | 51.98149 | 1.02577 | 24605 ft | 458 kts | 42° |
| 2026-05-04 19:17 | 52.00518 | 1.06055 | 24959 ft | 460 kts | 42° |
| 2026-05-04 19:17 | 52.02896 | 1.09550 | 25318 ft | 462 kts | 43° |
| 2026-05-04 19:17 | 52.05291 | 1.13057 | 25637 ft | 465 kts | 40° |
| 2026-05-04 19:17 | 52.07836 | 1.16321 | 25945 ft | 468 kts | 36° |
| 2026-05-04 19:18 | 52.10482 | 1.19413 | 26277 ft | 470 kts | 35° |
| 2026-05-04 19:18 | 52.13135 | 1.22545 | 26630 ft | 471 kts | 37° |
| 2026-05-04 19:18 | 52.15700 | 1.25887 | 26963 ft | 473 kts | 39° |
| 2026-05-04 19:18 | 52.18226 | 1.29360 | 27276 ft | 476 kts | 40° |
| 2026-05-04 19:19 | 52.20739 | 1.32866 | 27585 ft | 478 kts | 40° |
| 2026-05-04 19:19 | 52.23277 | 1.36389 | 27872 ft | 480 kts | 40° |
| 2026-05-04 19:19 | 52.25834 | 1.39901 | 28159 ft | 481 kts | 40° |
| 2026-05-04 19:19 | 52.28408 | 1.43412 | 28444 ft | 483 kts | 39° |
| 2026-05-04 19:20 | 52.30993 | 1.46934 | 28707 ft | 485 kts | 39° |
| 2026-05-04 19:20 | 52.33582 | 1.50491 | 29036 ft | 485 kts | 41° |
| 2026-05-04 19:20 | 52.36015 | 1.54307 | 29437 ft | 484 kts | 45° |
| 2026-05-04 19:20 | 52.37570 | 1.56916 | 29724 ft | 483 kts | 46° |
| 2026-05-04 19:21 | 52.39884 | 1.60893 | 30153 ft | 482 kts | 47° |
| 2026-05-04 19:21 | 52.42186 | 1.64874 | 30479 ft | 481 kts | 47° |
| 2026-05-04 19:21 | 52.44491 | 1.68839 | 30790 ft | 480 kts | 46° |
| 2026-05-04 19:21 | 52.46808 | 1.72798 | 31074 ft | 480 kts | 46° |
| 2026-05-04 19:22 | 52.49127 | 1.76740 | 31391 ft | 480 kts | 46° |
| 2026-05-04 19:22 | 52.51443 | 1.80672 | 31729 ft | 479 kts | 46° |
| 2026-05-04 19:22 | 52.53755 | 1.84602 | 32041 ft | 477 kts | 46° |
| 2026-05-04 19:22 | 52.56061 | 1.88529 | 32295 ft | 478 kts | 46° |
| 2026-05-04 19:23 | 52.58366 | 1.92464 | 32561 ft | 478 kts | 46° |
| 2026-05-04 19:23 | 52.60669 | 1.96394 | 32881 ft | 477 kts | 46° |
| 2026-05-04 19:23 | 52.62965 | 2.00314 | 33210 ft | 475 kts | 45° |
| 2026-05-04 19:23 | 52.65258 | 2.04234 | 33462 ft | 476 kts | 46° |
| 2026-05-04 19:24 | 52.67559 | 2.08173 | 33674 ft | 477 kts | 46° |
| 2026-05-04 19:24 | 52.69853 | 2.12108 | 33966 ft | 476 kts | 46° |
| 2026-05-04 19:24 | 52.72143 | 2.16044 | 34248 ft | 474 kts | 46° |
| 2026-05-04 19:24 | 52.74425 | 2.19973 | 34449 ft | 474 kts | 46° |
| 2026-05-04 19:25 | 52.76706 | 2.23913 | 34677 ft | 474 kts | 45° |
| 2026-05-04 19:25 | 52.78977 | 2.27838 | 34981 ft | 471 kts | 45° |
| 2026-05-04 19:25 | 52.81247 | 2.31763 | 35033 ft | 474 kts | 46° |
| 2026-05-04 19:26 | 52.85784 | 2.39622 | 35056 ft | 475 kts | 46° |
| 2026-05-04 19:26 | 52.90316 | 2.47514 | 35044 ft | 471 kts | 46° |
| 2026-05-04 19:27 | 52.94811 | 2.55364 | 35035 ft | 468 kts | 46° |
| 2026-05-04 19:27 | 52.99617 | 2.62696 | 35059 ft | 472 kts | 33° |
| 2026-05-04 19:28 | 53.05391 | 2.67844 | 35051 ft | 471 kts | 24° |
| 2026-05-04 19:28 | 53.11306 | 2.72556 | 35043 ft | 471 kts | 24° |
| 2026-05-04 19:29 | 53.17190 | 2.77374 | 35047 ft | 471 kts | 25° |
| 2026-05-04 19:29 | 53.23059 | 2.82264 | 35046 ft | 471 kts | 25° |
| 2026-05-04 19:30 | 53.28913 | 2.87157 | 35045 ft | 470 kts | 25° |
| 2026-05-04 19:30 | 53.34821 | 2.91854 | 35041 ft | 470 kts | 24° |
| 2026-05-04 19:31 | 53.40748 | 2.96447 | 35043 ft | 469 kts | 24° |
| 2026-05-04 19:31 | 53.46662 | 3.01058 | 35042 ft | 468 kts | 24° |
| 2026-05-04 19:32 | 53.52556 | 3.05698 | 35048 ft | 468 kts | 24° |
| 2026-05-04 19:32 | 53.58440 | 3.10353 | 35041 ft | 467 kts | 24° |
| 2026-05-04 19:33 | 53.64311 | 3.15013 | 35048 ft | 467 kts | 24° |
| 2026-05-04 19:33 | 53.70187 | 3.19692 | 35066 ft | 467 kts | 24° |
| 2026-05-04 19:34 | 53.76067 | 3.24385 | 35058 ft | 468 kts | 24° |
| 2026-05-04 19:34 | 53.81965 | 3.29108 | 35056 ft | 469 kts | 24° |
| 2026-05-04 19:35 | 53.87863 | 3.33848 | 35048 ft | 469 kts | 24° |
| 2026-05-04 19:35 | 53.93762 | 3.38604 | 35053 ft | 469 kts | 24° |
| 2026-05-04 19:36 | 53.99652 | 3.43364 | 35060 ft | 468 kts | 24° |
| 2026-05-04 19:36 | 54.05526 | 3.48126 | 35053 ft | 466 kts | 25° |
| 2026-05-04 19:37 | 54.11364 | 3.52879 | 35051 ft | 464 kts | 25° |
| 2026-05-04 19:37 | 54.17180 | 3.57627 | 35054 ft | 463 kts | 25° |
| 2026-05-04 19:38 | 54.22970 | 3.62370 | 35067 ft | 461 kts | 25° |
| 2026-05-04 19:38 | 54.28740 | 3.67112 | 35044 ft | 459 kts | 25° |
| 2026-05-04 19:39 | 54.34489 | 3.71848 | 35047 ft | 458 kts | 25° |
| 2026-05-04 19:39 | 54.40218 | 3.76585 | 35041 ft | 457 kts | 25° |
| 2026-05-04 19:40 | 54.45942 | 3.81326 | 35067 ft | 456 kts | 25° |
| 2026-05-04 19:40 | 54.51660 | 3.86082 | 35061 ft | 457 kts | 25° |
| 2026-05-04 19:41 | 54.57359 | 3.90833 | 35051 ft | 459 kts | 25° |
| 2026-05-04 19:41 | 54.63112 | 3.95648 | 35060 ft | 460 kts | 25° |
| 2026-05-04 19:42 | 54.68877 | 4.00490 | 35066 ft | 461 kts | 25° |
| 2026-05-04 19:42 | 54.74652 | 4.05353 | 35043 ft | 462 kts | 25° |
| 2026-05-04 19:43 | 54.80434 | 4.10239 | 35051 ft | 463 kts | 25° |
| 2026-05-04 19:43 | 54.86226 | 4.15133 | 35043 ft | 463 kts | 24° |
| 2026-05-04 19:44 | 54.92240 | 4.19044 | 35046 ft | 462 kts | 17° |
| 2026-05-04 19:44 | 54.98336 | 4.22496 | 35048 ft | 461 kts | 16° |
| 2026-05-04 19:45 | 55.04428 | 4.25986 | 35043 ft | 461 kts | 17° |
| 2026-05-04 19:45 | 55.10497 | 4.29563 | 35042 ft | 460 kts | 17° |
| 2026-05-04 19:46 | 55.16563 | 4.33178 | 35048 ft | 460 kts | 17° |
| 2026-05-04 19:46 | 55.22625 | 4.36806 | 35042 ft | 461 kts | 17° |
| 2026-05-04 19:47 | 55.28690 | 4.40453 | 35046 ft | 460 kts | 17° |
| 2026-05-04 19:47 | 55.34752 | 4.44111 | 35038 ft | 461 kts | 17° |
| 2026-05-04 19:48 | 55.40826 | 4.47782 | 35038 ft | 462 kts | 17° |
| 2026-05-04 19:48 | 55.46906 | 4.51470 | 35041 ft | 463 kts | 16° |
| 2026-05-04 19:49 | 55.52993 | 4.55173 | 35036 ft | 463 kts | 16° |
| 2026-05-04 19:49 | 55.59094 | 4.58890 | 35033 ft | 464 kts | 16° |
| 2026-05-04 19:50 | 55.65201 | 4.62636 | 35033 ft | 465 kts | 17° |
| 2026-05-04 19:50 | 55.71312 | 4.66393 | 35041 ft | 465 kts | 15° |
| 2026-05-04 19:51 | 55.77441 | 4.70173 | 35034 ft | 466 kts | 15° |
| 2026-05-04 19:51 | 55.83570 | 4.73966 | 35020 ft | 466 kts | 16° |
| 2026-05-04 19:52 | 55.89692 | 4.77764 | 35017 ft | 466 kts | 16° |
| 2026-05-04 19:52 | 55.95801 | 4.81569 | 35023 ft | 465 kts | 16° |
| 2026-05-04 19:53 | 56.01910 | 4.85385 | 35017 ft | 465 kts | 16° |
| 2026-05-04 19:53 | 56.08009 | 4.89212 | 35021 ft | 464 kts | 16° |
| 2026-05-04 19:54 | 56.14102 | 4.93045 | 35018 ft | 464 kts | 16° |
| 2026-05-04 19:54 | 56.20191 | 4.96887 | 35027 ft | 464 kts | 16° |
| 2026-05-04 19:55 | 56.26278 | 5.00750 | 35021 ft | 464 kts | 16° |
| 2026-05-04 19:55 | 56.32307 | 5.04733 | 35013 ft | 465 kts | 16° |
| 2026-05-04 19:56 | 56.38376 | 5.08809 | 35009 ft | 465 kts | 17° |
| 2026-05-04 19:56 | 56.44450 | 5.12887 | 35007 ft | 466 kts | 16° |
| 2026-05-04 19:57 | 56.50539 | 5.16979 | 35009 ft | 468 kts | 16° |
| 2026-05-04 19:57 | 56.56647 | 5.21088 | 35011 ft | 469 kts | 16° |
| 2026-05-04 19:58 | 56.62772 | 5.25225 | 34998 ft | 470 kts | 16° |
| 2026-05-04 19:58 | 56.68912 | 5.29389 | 34998 ft | 471 kts | 16° |
| 2026-05-04 19:59 | 56.74888 | 5.34379 | 35002 ft | 480 kts | 29° |
| 2026-05-04 19:59 | 56.80113 | 5.42122 | 34999 ft | 486 kts | 37° |
| 2026-05-04 20:00 | 56.85214 | 5.50253 | 34989 ft | 488 kts | 37° |
| 2026-05-04 20:00 | 56.90345 | 5.58379 | 34990 ft | 488 kts | 37° |
| 2026-05-04 20:01 | 56.95497 | 5.66475 | 34982 ft | 488 kts | 37° |
| 2026-05-04 20:01 | 57.00651 | 5.74571 | 34989 ft | 489 kts | 36° |
| 2026-05-04 20:02 | 57.05811 | 5.82696 | 34986 ft | 488 kts | 36° |
| 2026-05-04 20:02 | 57.10960 | 5.90849 | 34975 ft | 488 kts | 37° |
| 2026-05-04 20:03 | 57.16100 | 5.99020 | 34973 ft | 488 kts | 37° |
| 2026-05-04 20:03 | 57.21204 | 6.07162 | 34970 ft | 488 kts | 37° |
| 2026-05-04 20:04 | 57.26337 | 6.15384 | 34968 ft | 489 kts | 37° |
| 2026-05-04 20:04 | 57.31468 | 6.23628 | 34968 ft | 489 kts | 37° |
| 2026-05-04 20:05 | 57.36598 | 6.31914 | 34964 ft | 490 kts | 37° |
| 2026-05-04 20:05 | 57.41734 | 6.40241 | 34960 ft | 490 kts | 37° |
| 2026-05-04 20:06 | 57.46870 | 6.48589 | 34954 ft | 491 kts | 37° |
| 2026-05-04 20:06 | 57.52014 | 6.56983 | 34954 ft | 493 kts | 37° |
| 2026-05-04 20:07 | 57.57170 | 6.65436 | 34954 ft | 494 kts | 37° |
| 2026-05-04 20:07 | 57.62324 | 6.73920 | 34949 ft | 494 kts | 37° |
| 2026-05-04 20:08 | 57.66604 | 6.80994 | 34930 ft | 495 kts | 37° |
| 2026-05-04 20:08 | 57.71754 | 6.89529 | 34937 ft | 494 kts | 37° |
| 2026-05-04 20:09 | 57.76893 | 6.98081 | 34935 ft | 495 kts | 37° |
| 2026-05-04 20:09 | 57.82041 | 7.06681 | 34928 ft | 496 kts | 37° |
| 2026-05-04 20:10 | 57.87198 | 7.15331 | 34918 ft | 497 kts | 37° |
| 2026-05-04 20:10 | 57.92352 | 7.24013 | 34916 ft | 498 kts | 37° |
| 2026-05-04 20:11 | 57.97502 | 7.32722 | 34922 ft | 498 kts | 37° |
| 2026-05-04 20:11 | 58.02652 | 7.41466 | 34913 ft | 498 kts | 37° |
| 2026-05-04 20:12 | 58.07795 | 7.50232 | 34900 ft | 498 kts | 37° |
| 2026-05-04 20:12 | 58.12938 | 7.59037 | 34901 ft | 499 kts | 37° |
| 2026-05-04 20:13 | 58.18080 | 7.67874 | 34880 ft | 499 kts | 37° |
| 2026-05-04 20:13 | 58.23209 | 7.76724 | 34887 ft | 499 kts | 38° |
| 2026-05-04 20:14 | 58.28338 | 7.85610 | 34891 ft | 500 kts | 37° |
| 2026-05-04 20:14 | 58.33478 | 7.94555 | 34881 ft | 501 kts | 38° |
| 2026-05-04 20:15 | 58.38615 | 8.03530 | 34867 ft | 501 kts | 38° |
| 2026-05-04 20:15 | 58.43738 | 8.12522 | 34870 ft | 500 kts | 37° |
| 2026-05-04 20:16 | 58.48857 | 8.21538 | 34862 ft | 501 kts | 38° |
| 2026-05-04 20:16 | 58.53936 | 8.30515 | 34859 ft | 501 kts | 38° |
| 2026-05-04 20:17 | 58.59264 | 8.38971 | 34853 ft | 494 kts | 30° |
| 2026-05-04 20:17 | 58.64041 | 8.45301 | 34850 ft | 493 kts | 28° |
| 2026-05-04 20:18 | 58.69711 | 8.52704 | 34847 ft | 493 kts | 28° |
| 2026-05-04 20:18 | 58.75345 | 8.60226 | 34895 ft | 493 kts | 29° |
| 2026-05-04 20:19 | 58.80969 | 8.67864 | 34841 ft | 495 kts | 29° |
| 2026-05-04 20:19 | 58.86598 | 8.75572 | 34838 ft | 496 kts | 30° |
| 2026-05-04 20:20 | 58.92231 | 8.83314 | 34835 ft | 498 kts | 30° |
| 2026-05-04 20:20 | 58.97875 | 8.91100 | 34816 ft | 498 kts | 30° |
| 2026-05-04 20:21 | 59.03546 | 8.98943 | 34257 ft | 506 kts | 29° |
| 2026-05-04 20:21 | 59.06408 | 9.02916 | 33588 ft | 506 kts | 29° |
| 2026-05-04 20:21 | 59.12128 | 9.10888 | 32107 ft | 506 kts | 29° |
| 2026-05-04 20:22 | 59.14985 | 9.14881 | 31393 ft | 506 kts | 29° |
| 2026-05-04 20:22 | 59.17840 | 9.18880 | 30645 ft | 505 kts | 29° |
| 2026-05-04 20:22 | 59.20696 | 9.22886 | 29916 ft | 506 kts | 29° |
| 2026-05-04 20:22 | 59.23551 | 9.26898 | 28992 ft | 506 kts | 29° |
| 2026-05-04 20:23 | 59.26404 | 9.30920 | 28308 ft | 503 kts | 29° |
| 2026-05-04 20:23 | 59.29222 | 9.34905 | 27743 ft | 497 kts | 29° |
| 2026-05-04 20:23 | 59.32009 | 9.38856 | 27124 ft | 493 kts | 29° |
| 2026-05-04 20:23 | 59.34769 | 9.42774 | 26533 ft | 487 kts | 29° |
| 2026-05-04 20:24 | 59.37496 | 9.46653 | 25969 ft | 482 kts | 28° |
| 2026-05-04 20:24 | 59.40200 | 9.50507 | 25396 ft | 478 kts | 29° |
| 2026-05-04 20:24 | 59.42880 | 9.54332 | 24846 ft | 474 kts | 28° |
| 2026-05-04 20:24 | 59.45538 | 9.58129 | 24279 ft | 471 kts | 28° |
| 2026-05-04 20:25 | 59.48140 | 9.61853 | 23702 ft | 468 kts | 28° |
| 2026-05-04 20:25 | 59.50761 | 9.65609 | 23075 ft | 465 kts | 28° |
| 2026-05-04 20:25 | 59.53367 | 9.69354 | 22514 ft | 461 kts | 28° |
| 2026-05-04 20:25 | 59.55944 | 9.73066 | 21902 ft | 458 kts | 28° |
| 2026-05-04 20:26 | 59.58507 | 9.76767 | 21317 ft | 454 kts | 28° |
| 2026-05-04 20:26 | 59.61042 | 9.80436 | 20737 ft | 450 kts | 28° |
| 2026-05-04 20:26 | 59.63562 | 9.84089 | 20172 ft | 447 kts | 28° |
| 2026-05-04 20:26 | 59.66052 | 9.87703 | 19638 ft | 442 kts | 28° |
| 2026-05-04 20:27 | 59.68523 | 9.91296 | 19101 ft | 439 kts | 28° |
| 2026-05-04 20:27 | 59.70977 | 9.94868 | 18546 ft | 438 kts | 28° |
| 2026-05-04 20:27 | 59.73429 | 9.98443 | 17985 ft | 436 kts | 28° |
| 2026-05-04 20:27 | 59.75861 | 10.01997 | 17380 ft | 433 kts | 28° |
| 2026-05-04 20:28 | 59.78273 | 10.05533 | 16817 ft | 429 kts | 28° |
| 2026-05-04 20:28 | 59.80663 | 10.09045 | 16318 ft | 426 kts | 28° |
| 2026-05-04 20:28 | 59.83032 | 10.12529 | 15760 ft | 422 kts | 28° |
| 2026-05-04 20:28 | 59.85385 | 10.15994 | 15235 ft | 419 kts | 28° |
| 2026-05-04 20:29 | 59.87715 | 10.19432 | 14701 ft | 415 kts | 28° |
| 2026-05-04 20:29 | 59.90022 | 10.22847 | 14179 ft | 411 kts | 28° |
| 2026-05-04 20:29 | 59.92307 | 10.26231 | 13743 ft | 406 kts | 28° |
| 2026-05-04 20:29 | 59.94569 | 10.29426 | 13275 ft | 391 kts | 26° |
| 2026-05-04 20:30 | 59.96795 | 10.32421 | 12550 ft | 382 kts | 26° |
| 2026-05-04 20:30 | 59.98989 | 10.35329 | 11815 ft | 376 kts | 26° |
| 2026-05-04 20:30 | 60.01152 | 10.38197 | 11076 ft | 370 kts | 26° |
| 2026-05-04 20:30 | 60.03277 | 10.41033 | 10344 ft | 365 kts | 27° |
| 2026-05-04 20:31 | 60.05331 | 10.43795 | 9886 ft | 354 kts | 28° |
| 2026-05-04 20:31 | 60.07316 | 10.46490 | 9621 ft | 336 kts | 29° |
| 2026-05-04 20:31 | 60.09204 | 10.49066 | 9626 ft | 313 kts | 29° |
| 2026-05-04 20:31 | 60.10941 | 10.51447 | 9577 ft | 293 kts | 29° |
| 2026-05-04 20:32 | 60.12582 | 10.53692 | 9335 ft | 281 kts | 29° |
| 2026-05-04 20:32 | 60.14193 | 10.55884 | 8912 ft | 278 kts | 29° |
| 2026-05-04 20:32 | 60.15765 | 10.58028 | 8495 ft | 274 kts | 29° |
| 2026-05-04 20:32 | 60.17336 | 10.60166 | 8052 ft | 272 kts | 29° |
| 2026-05-04 20:33 | 60.18881 | 10.62279 | 7722 ft | 265 kts | 30° |
| 2026-05-04 20:33 | 60.20377 | 10.64336 | 7453 ft | 257 kts | 30° |
| 2026-05-04 20:33 | 60.21849 | 10.66359 | 7241 ft | 253 kts | 30° |
| 2026-05-04 20:33 | 60.23271 | 10.68323 | 7210 ft | 243 kts | 30° |
| 2026-05-04 20:34 | 60.24668 | 10.70244 | 7041 ft | 245 kts | 30° |
| 2026-05-04 20:34 | 60.26091 | 10.72201 | 6822 ft | 253 kts | 30° |
| 2026-05-04 20:34 | 60.27578 | 10.74248 | 6585 ft | 263 kts | 30° |
| 2026-05-04 20:34 | 60.29094 | 10.76341 | 6292 ft | 264 kts | 30° |
| 2026-05-04 20:35 | 60.30606 | 10.78436 | 6004 ft | 263 kts | 31° |
| 2026-05-04 20:35 | 60.32054 | 10.80762 | 5752 ft | 267 kts | 39° |
| 2026-05-04 20:35 | 60.33374 | 10.83290 | 5784 ft | 257 kts | 40° |
| 2026-05-04 20:35 | 60.34652 | 10.85776 | 5787 ft | 255 kts | 40° |
| 2026-05-04 20:36 | 60.35956 | 10.88285 | 5581 ft | 263 kts | 39° |
| 2026-05-04 20:36 | 60.37293 | 10.90855 | 5333 ft | 268 kts | 42° |
| 2026-05-04 20:36 | 60.38282 | 10.94045 | 5082 ft | 272 kts | 70° |
| 2026-05-04 20:36 | 60.38599 | 10.97791 | 5013 ft | 270 kts | 82° |
| 2026-05-04 20:37 | 60.38774 | 11.01549 | 5001 ft | 267 kts | 82° |
| 2026-05-04 20:37 | 60.38871 | 11.05293 | 4991 ft | 267 kts | 93° |
| 2026-05-04 20:37 | 60.38337 | 11.08791 | 5005 ft | 256 kts | 116° |
| 2026-05-04 20:37 | 60.37525 | 11.11913 | 4824 ft | 248 kts | 118° |
| 2026-05-04 20:38 | 60.36560 | 11.14796 | 4360 ft | 250 kts | 139° |
| 2026-05-04 20:38 | 60.35041 | 11.16215 | 3942 ft | 238 kts | 179° |
| 2026-05-04 20:38 | 60.33463 | 11.15896 | 3678 ft | 221 kts | 196° |
| 2026-05-04 20:38 | 60.32007 | 11.15192 | 3343 ft | 207 kts | 200° |
| 2026-05-04 20:39 | 60.30659 | 11.14411 | 2974 ft | 197 kts | 201° |
| 2026-05-04 20:39 | 60.29355 | 11.13646 | 2524 ft | 193 kts | 202° |
| 2026-05-04 20:39 | 60.28077 | 11.12903 | 2126 ft | 186 kts | 202° |
| 2026-05-04 20:39 | 60.26875 | 11.12214 | 1868 ft | 173 kts | 203° |
| 2026-05-04 20:40 | 60.25774 | 11.11589 | 1651 ft | 155 kts | 203° |
| 2026-05-04 20:40 | 60.24794 | 11.11016 | 1394 ft | 141 kts | 202° |
| 2026-05-04 20:40 | 60.23871 | 11.10473 | 1176 ft | 137 kts | 200° |
| 2026-05-04 20:40 | 60.22939 | 11.09928 | 1010 ft | 141 kts | 198° |
| 2026-05-04 20:41 | 60.22003 | 11.09397 | 808 ft | 139 kts | 197° |
| 2026-05-04 20:41 | 60.21101 | 11.08877 | 678 ft | 123 kts | 196° |
| 2026-05-04 20:41 | 60.20493 | 11.08526 | 677 ft | 62 kts | 196° |
| 2026-05-04 20:41 | 60.20266 | 11.08462 | 674 ft | 14 kts | 104° |
| 2026-05-04 20:42 | 60.20243 | 11.08664 | 677 ft | 16 kts | 109° |
| 2026-05-04 20:42 | 60.20209 | 11.08884 | 678 ft | 17 kts | 102° |
| 2026-05-04 20:42 | 60.20179 | 11.09112 | 677 ft | 17 kts | 110° |
| 2026-05-04 20:42 | 60.20144 | 11.09335 | 680 ft | 17 kts | 105° |
| 2026-05-04 20:43 | 60.20108 | 11.09576 | 680 ft | 20 kts | 107° |
| 2026-05-04 20:43 | 60.20069 | 11.09876 | 681 ft | 23 kts | 106° |
| 2026-05-04 20:43 | 60.20021 | 11.10177 | 683 ft | 22 kts | 106° |
| 2026-05-04 20:43 | 60.19980 | 11.10473 | 680 ft | 22 kts | 105° |
| 2026-05-04 20:44 | 60.19899 | 11.10578 | 683 ft | 16 kts | 192° |
| 2026-05-04 20:44 | 60.19795 | 11.10521 | 680 ft | 16 kts | 196° |
| 2026-05-04 20:44 | 60.19692 | 11.10460 | 684 ft | 15 kts | 196° |
| 2026-05-04 20:44 | 60.19591 | 11.10404 | 678 ft | 14 kts | 193° |
| 2026-05-04 20:45 | 60.19528 | 11.10326 | 682 ft | 11 kts | 240° |
| 2026-05-04 20:45 | 60.19488 | 11.10196 | 682 ft | 11 kts | 231° |
| 2026-05-04 20:45 | 60.19473 | 11.10159 | 684 ft | 0 kts | 231° |